createdAt,value
2023-09-23T00:01:27.189Z,1.80
2023-09-23T00:03:54.039Z,1.33
2023-09-23T00:06:23.906Z,2.07
2023-09-23T00:08:50.730Z,0.87
2023-09-23T00:11:17.740Z,1.13
2023-09-23T00:13:44.423Z,0.87
2023-09-23T00:16:15.838Z,2.17
2023-09-23T00:18:46.390Z,2.27
2023-09-23T00:21:14.044Z,1.80
2023-09-23T00:23:41.238Z,1.70
2023-09-23T00:26:08.557Z,1.90
2023-09-23T00:28:35.533Z,0.93
2023-09-23T00:31:15.714Z,1.63
2023-09-23T00:33:43.455Z,0.90
2023-09-23T00:36:10.378Z,1.60
2023-09-23T00:38:37.842Z,2.00
2023-09-23T00:41:09.166Z,1.83
2023-09-23T00:43:36.981Z,3.00
2023-09-23T00:46:07.440Z,1.37
2023-09-23T00:48:39.234Z,6.63
2023-09-23T00:51:07.613Z,1.10
2023-09-23T00:53:36.390Z,2.57
2023-09-23T00:56:07.052Z,1.27
2023-09-23T00:58:33.648Z,0.97
2023-09-23T01:01:00.153Z,1.43
2023-09-23T01:03:28.490Z,0.77
2023-09-23T01:06:05.551Z,2.13
2023-09-23T01:08:32.307Z,1.37
2023-09-23T01:10:58.815Z,1.67
2023-09-23T01:13:26.016Z,1.13
2023-09-23T01:15:52.941Z,1.63
2023-09-23T01:18:21.685Z,1.33
2023-09-23T01:20:51.010Z,2.80
2023-09-23T01:23:19.020Z,2.07
2023-09-23T01:25:45.647Z,1.83
2023-09-23T01:28:12.827Z,2.57
2023-09-23T01:30:41.667Z,1.63
2023-09-23T01:33:08.938Z,1.77
2023-09-23T01:35:36.190Z,0.90
2023-09-23T01:38:07.594Z,1.33
2023-09-23T01:40:36.124Z,4.67
2023-09-23T01:43:03.291Z,2.67
2023-09-23T01:45:31.433Z,2.27
2023-09-23T01:47:58.282Z,3.23
2023-09-23T01:50:26.347Z,1.00
2023-09-23T01:52:53.212Z,1.93
2023-09-23T01:55:20.105Z,1.77
2023-09-23T01:57:49.194Z,1.73
2023-09-23T02:00:19.353Z,2.30
2023-09-23T02:02:46.546Z,1.30
2023-09-23T02:05:13.467Z,1.90
2023-09-23T02:07:42.342Z,1.50
2023-09-23T02:10:16.006Z,1.30
2023-09-23T02:12:43.588Z,1.97
2023-09-23T02:15:16.695Z,2.80
2023-09-23T02:17:44.938Z,3.00
2023-09-23T02:20:13.999Z,1.93
2023-09-23T02:22:42.986Z,2.37
2023-09-23T02:25:13.177Z,1.03
2023-09-23T02:27:40.876Z,1.73
2023-09-23T02:30:10.527Z,2.50
2023-09-23T02:32:42.397Z,2.30
2023-09-23T02:35:12.909Z,2.00
2023-09-23T02:37:40.868Z,1.10
2023-09-23T02:40:12.570Z,4.00
2023-09-23T02:42:43.801Z,2.47
2023-09-23T02:45:12.103Z,2.03
2023-09-23T02:47:39.888Z,2.97
2023-09-23T02:50:11.219Z,1.87
2023-09-23T02:52:40.158Z,1.83
2023-09-23T02:55:15.710Z,1.03
2023-09-23T02:57:48.066Z,1.40
2023-09-23T03:00:18.079Z,2.13
2023-09-23T03:02:56.557Z,1.10
2023-09-23T03:05:32.182Z,2.93
2023-09-23T03:08:01.018Z,1.33
2023-09-23T03:10:40.843Z,3.37
2023-09-23T03:13:08.770Z,2.73
2023-09-23T03:15:51.678Z,1.17
2023-09-23T03:18:38.604Z,1.43
2023-09-23T03:21:16.291Z,1.97
2023-09-23T03:23:42.926Z,2.33
2023-09-23T03:26:11.028Z,1.70
2023-09-23T03:28:38.195Z,1.50
2023-09-23T03:31:04.925Z,3.20
2023-09-23T03:33:33.551Z,1.93
2023-09-23T03:36:00.087Z,2.03
2023-09-23T03:38:27.572Z,3.57
2023-09-23T03:41:00.885Z,1.97
2023-09-23T03:43:30.339Z,2.07
2023-09-23T03:45:57.235Z,2.03
2023-09-23T03:48:23.884Z,2.03
2023-09-23T03:50:54.996Z,2.47
2023-09-23T03:53:25.718Z,3.60
2023-09-23T03:55:56.189Z,3.70
2023-09-23T03:58:23.653Z,2.70
2023-09-23T04:00:50.524Z,1.80
2023-09-23T04:03:19.214Z,3.00
2023-09-23T04:05:54.742Z,2.20
2023-09-23T04:08:21.397Z,2.13
2023-09-23T04:10:48.015Z,1.30
2023-09-23T04:13:15.769Z,3.07
2023-09-23T04:15:42.955Z,2.57
2023-09-23T04:18:10.459Z,3.17
2023-09-23T04:20:37.505Z,3.00
2023-09-23T04:23:04.583Z,3.07
2023-09-23T04:25:31.351Z,2.23
2023-09-23T04:27:57.954Z,3.47
2023-09-23T04:30:26.394Z,3.90
2023-09-23T04:32:53.031Z,2.47
2023-09-23T04:35:19.730Z,2.13
2023-09-23T04:37:46.319Z,1.70
2023-09-23T04:40:14.336Z,2.90
2023-09-23T04:42:44.574Z,1.90
2023-09-23T04:45:12.480Z,2.50
2023-09-23T04:47:39.682Z,2.77
2023-09-23T04:50:08.744Z,2.20
2023-09-23T04:52:36.213Z,1.80
2023-09-23T04:55:03.487Z,1.60
2023-09-23T04:57:30.312Z,1.40
2023-09-23T04:59:58.730Z,1.93
2023-09-23T05:02:27.289Z,1.57
2023-09-23T05:04:56.916Z,1.73
2023-09-23T05:07:27.037Z,2.50
2023-09-23T05:09:56.768Z,3.63
2023-09-23T05:12:24.878Z,2.30
2023-09-23T05:14:54.093Z,1.40
2023-09-23T05:17:23.000Z,1.73
2023-09-23T05:19:49.969Z,2.80
2023-09-23T05:22:17.725Z,4.37
2023-09-23T05:24:48.657Z,1.40
2023-09-23T05:27:15.968Z,2.63
2023-09-23T05:29:45.800Z,2.10
2023-09-23T05:32:13.280Z,1.40
2023-09-23T05:34:40.558Z,1.93
2023-09-23T05:37:13.173Z,1.50
2023-09-23T05:39:46.726Z,3.00
2023-09-23T05:42:15.079Z,3.77
2023-09-23T05:44:42.354Z,4.03
2023-09-23T05:47:10.273Z,2.90
2023-09-23T05:49:37.779Z,1.80
2023-09-23T05:52:04.461Z,1.60
2023-09-23T05:54:32.629Z,4.03
2023-09-23T05:56:59.137Z,2.20
2023-09-23T05:59:25.717Z,4.50
2023-09-23T06:01:52.343Z,2.67
2023-09-23T06:04:18.891Z,2.73
2023-09-23T06:06:45.422Z,2.00
2023-09-23T06:09:11.900Z,1.97
2023-09-23T06:11:38.986Z,2.13
2023-09-23T06:14:05.618Z,2.97
2023-09-23T06:16:32.191Z,2.20
2023-09-23T06:18:58.751Z,2.40
2023-09-23T06:21:25.254Z,2.67
2023-09-23T06:23:51.752Z,2.60
2023-09-23T06:26:20.717Z,3.50
2023-09-23T06:28:49.098Z,2.73
2023-09-23T06:31:16.053Z,4.07
2023-09-23T06:33:46.912Z,2.33
2023-09-23T06:36:28.730Z,1.60
2023-09-23T06:38:55.542Z,1.97
2023-09-23T06:41:28.025Z,2.57
2023-09-23T06:44:00.700Z,3.47
2023-09-23T06:46:32.407Z,2.40
2023-09-23T06:49:04.931Z,2.60
2023-09-23T06:51:44.343Z,2.40
2023-09-23T06:54:13.387Z,1.73
2023-09-23T07:03:17.117Z,1.53
2023-09-23T07:09:21.061Z,2.60
2023-09-23T07:11:47.882Z,1.20
2023-09-23T07:14:15.073Z,1.67
2023-09-23T07:33:30.626Z,1.93
2023-09-23T07:39:43.132Z,3.20
2023-09-23T07:43:15.585Z,1.20
2023-09-23T07:49:01.976Z,1.13
2023-09-23T07:51:39.116Z,2.57
2023-09-23T07:54:28.922Z,2.90
2023-09-23T07:57:03.087Z,2.40
2023-09-23T07:59:32.955Z,1.93
2023-09-23T08:02:03.049Z,2.30
2023-09-23T08:04:32.749Z,2.60
2023-09-23T08:06:59.699Z,3.43
2023-09-23T08:09:26.284Z,2.40
2023-09-23T08:11:52.905Z,1.57
2023-09-23T08:14:19.489Z,0.93
2023-09-23T08:16:46.016Z,1.90
2023-09-23T08:19:12.949Z,2.87
2023-09-23T08:21:39.643Z,1.47
2023-09-23T08:24:06.402Z,3.07
2023-09-23T08:26:32.996Z,2.80
2023-09-23T08:31:26.290Z,0.80
2023-09-23T08:33:52.829Z,1.03
2023-09-23T08:36:19.377Z,1.03
2023-09-23T08:38:47.073Z,2.60
2023-09-23T08:41:17.560Z,0.90
2023-09-23T08:43:45.137Z,1.80
2023-09-23T08:46:13.722Z,3.67
2023-09-23T08:48:41.628Z,2.70
2023-09-23T08:51:10.057Z,1.63
2023-09-23T08:53:39.970Z,1.40
2023-09-23T08:56:07.942Z,3.23
2023-09-23T08:58:34.716Z,2.23
2023-09-23T09:01:02.371Z,3.27
2023-09-23T09:03:30.369Z,3.20
2023-09-23T09:05:57.093Z,1.60
2023-09-23T09:08:24.046Z,2.40
2023-09-23T09:10:50.730Z,1.73
2023-09-23T09:13:18.575Z,2.57
2023-09-23T09:15:45.747Z,5.40
2023-09-23T09:18:12.375Z,4.70
2023-09-23T09:20:38.985Z,2.73
2023-09-23T09:23:05.555Z,1.23
2023-09-23T09:25:32.576Z,2.03
2023-09-23T09:27:59.374Z,2.73
2023-09-23T09:30:27.034Z,1.87
2023-09-23T09:33:00.163Z,4.20
2023-09-23T09:35:27.729Z,1.17
2023-09-23T09:38:07.354Z,1.80
2023-09-23T09:40:43.069Z,1.70
2023-09-23T09:43:10.652Z,2.40
2023-09-23T09:45:41.703Z,1.53
2023-09-23T09:48:09.692Z,1.80
2023-09-23T09:50:39.835Z,2.73
2023-09-23T09:53:09.932Z,1.00
2023-09-23T09:55:36.519Z,2.17
2023-09-23T09:58:03.353Z,2.00
2023-09-23T10:00:35.429Z,0.90
2023-09-23T10:03:07.736Z,1.33
2023-09-23T10:05:35.968Z,2.60
2023-09-23T10:08:16.969Z,2.10
2023-09-23T10:10:49.109Z,2.20
2023-09-23T10:13:21.071Z,1.57
2023-09-23T10:15:47.768Z,2.73
2023-09-23T10:18:17.851Z,1.07
2023-09-23T10:20:49.399Z,3.10
2023-09-23T10:23:24.724Z,3.40
2023-09-23T10:25:53.558Z,2.17
2023-09-23T10:28:21.655Z,2.20
2023-09-23T10:31:05.368Z,2.70
2023-09-23T10:33:36.626Z,1.80
2023-09-23T10:36:05.049Z,3.53
2023-09-23T10:38:36.157Z,2.87
2023-09-23T10:41:05.256Z,3.50
2023-09-23T10:43:32.619Z,10.93
2023-09-23T10:46:03.297Z,5.10
2023-09-23T10:48:31.147Z,7.43
2023-09-23T10:50:58.617Z,2.73
2023-09-23T10:53:31.066Z,5.90
2023-09-23T10:56:03.060Z,3.13
2023-09-23T10:58:33.061Z,1.10
2023-09-23T11:00:59.633Z,1.67
2023-09-23T11:03:26.537Z,6.67
2023-09-23T11:05:53.319Z,2.77
2023-09-23T11:08:19.954Z,4.07
2023-09-23T11:10:48.944Z,3.73
2023-09-23T11:13:16.972Z,1.90
2023-09-23T11:15:46.288Z,2.07
2023-09-23T11:18:15.746Z,5.57
2023-09-23T11:20:44.022Z,2.80
2023-09-23T11:23:11.440Z,3.07
2023-09-23T11:25:47.823Z,2.63
2023-09-23T11:28:22.724Z,3.73
2023-09-23T11:30:57.683Z,1.80
2023-09-23T11:33:26.848Z,4.23
2023-09-23T11:36:01.806Z,2.93
2023-09-23T11:38:28.708Z,4.37
2023-09-23T11:48:26.458Z,1.97
2023-09-23T11:51:34.102Z,2.07
2023-09-23T11:54:15.474Z,1.80
2023-09-23T11:56:45.539Z,3.13
2023-09-23T11:59:12.346Z,5.13
2023-09-23T12:01:39.131Z,2.97
2023-09-23T12:04:06.162Z,2.40
2023-09-23T12:06:37.751Z,3.47
2023-09-23T12:09:05.137Z,3.60
2023-09-23T12:11:31.779Z,2.73
2023-09-23T12:13:58.329Z,1.83
2023-09-23T12:16:25.023Z,3.50
2023-09-23T12:18:51.622Z,4.67
2023-09-23T12:21:23.362Z,3.60
2023-09-23T12:23:50.228Z,1.77
2023-09-23T12:26:16.853Z,1.40
2023-09-23T12:28:43.826Z,2.17
2023-09-23T12:31:11.305Z,1.77
2023-09-23T12:33:38.007Z,1.93
2023-09-23T12:36:04.733Z,1.27
2023-09-23T12:38:31.689Z,1.23
2023-09-23T12:40:58.421Z,0.80
2023-09-23T12:43:25.090Z,0.70
2023-09-23T12:45:54.754Z,2.17
2023-09-23T12:48:21.509Z,4.20
2023-09-23T12:50:49.165Z,2.80
2023-09-23T12:53:15.893Z,2.50
2023-09-23T12:55:42.443Z,2.47
2023-09-23T12:58:09.263Z,7.73
2023-09-23T13:00:38.758Z,8.27
2023-09-23T13:03:15.323Z,12.23
2023-09-23T13:06:19.638Z,4.13
2023-09-23T13:08:54.388Z,12.00
2023-09-23T13:11:24.127Z,9.47
2023-09-23T13:13:51.934Z,10.53
2023-09-23T13:16:18.872Z,4.90
2023-09-23T13:18:45.936Z,2.97
2023-09-23T13:21:13.120Z,9.20
2023-09-23T13:23:40.041Z,1.70
2023-09-23T13:26:07.905Z,4.20
2023-09-23T13:28:35.191Z,2.23
2023-09-23T13:31:02.005Z,3.03
2023-09-23T13:33:29.241Z,6.60
2023-09-23T13:35:55.916Z,5.83
2023-09-23T13:38:22.522Z,4.00
2023-09-23T13:40:49.199Z,2.27
2023-09-23T13:43:15.810Z,2.97
2023-09-23T13:45:42.385Z,3.07
2023-09-23T13:48:09.750Z,2.33
2023-09-23T13:50:37.776Z,4.30
2023-09-23T13:53:14.000Z,1.87
2023-09-23T13:55:43.518Z,2.03
2023-09-23T13:58:10.824Z,2.87
2023-09-23T14:00:38.427Z,3.00
2023-09-23T14:03:05.408Z,2.13
2023-09-23T14:05:32.002Z,1.17
2023-09-23T14:07:58.639Z,2.20
2023-09-23T14:10:26.324Z,1.53
2023-09-23T14:12:52.943Z,3.90
2023-09-23T14:15:19.639Z,2.57
2023-09-23T14:17:47.990Z,2.43
2023-09-23T14:20:15.399Z,2.43
2023-09-23T14:25:49.822Z,1.30
2023-09-23T14:28:18.951Z,1.40
2023-09-23T14:30:48.300Z,4.13
2023-09-23T14:33:14.993Z,3.77
2023-09-23T14:35:45.221Z,4.13
2023-09-23T14:41:36.424Z,2.30
2023-09-23T14:52:22.210Z,3.50
2023-09-23T14:55:08.134Z,3.00
2023-09-23T15:01:00.932Z,2.10
2023-09-23T15:03:27.661Z,2.90
2023-09-23T15:05:54.377Z,1.47
2023-09-23T15:08:20.992Z,1.50
2023-09-23T15:10:47.560Z,2.20
2023-09-23T15:13:14.064Z,1.30
2023-09-23T15:15:41.033Z,3.20
2023-09-23T15:18:07.636Z,2.83
2023-09-23T15:20:34.716Z,1.63
2023-09-23T15:24:03.857Z,3.90
2023-09-23T15:26:30.418Z,2.90
2023-09-23T15:28:57.005Z,1.93
2023-09-23T15:31:24.383Z,3.33
2023-09-23T15:33:50.962Z,1.63
2023-09-23T15:36:19.175Z,1.77
2023-09-23T15:38:46.038Z,2.20
2023-09-23T15:41:13.008Z,3.37
2023-09-23T15:43:40.333Z,1.33
2023-09-23T15:46:07.007Z,1.90
2023-09-23T15:48:34.833Z,2.50
2023-09-23T15:51:10.021Z,2.60
2023-09-23T15:53:39.983Z,1.50
2023-09-23T15:56:10.479Z,5.03
2023-09-23T15:58:41.436Z,3.37
2023-09-23T16:01:08.253Z,2.10
2023-09-23T16:03:35.613Z,1.80
2023-09-23T16:06:03.292Z,2.73
2023-09-23T16:08:29.981Z,2.13
2023-09-23T16:10:56.587Z,2.13
2023-09-23T16:13:23.289Z,1.80
2023-09-23T16:15:49.948Z,1.87
2023-09-23T16:18:18.044Z,1.60
2023-09-23T16:20:46.747Z,3.33
2023-09-23T16:23:13.256Z,3.43
2023-09-23T16:25:40.054Z,1.40
2023-09-23T16:28:07.442Z,1.47
2023-09-23T16:37:55.802Z,2.13
2023-09-23T16:40:22.790Z,2.67
2023-09-23T16:42:49.431Z,1.97
2023-09-23T16:45:16.220Z,4.13
2023-09-23T16:47:42.895Z,1.10
2023-09-23T16:50:09.981Z,2.50
2023-09-23T16:52:36.602Z,1.93
2023-09-23T16:55:03.279Z,3.50
2023-09-23T16:57:29.772Z,1.83
2023-09-23T16:59:56.300Z,1.70
2023-09-23T17:02:23.021Z,3.13
2023-09-23T17:04:50.069Z,2.40
2023-09-23T17:07:16.760Z,2.67
2023-09-23T17:09:44.140Z,1.83
2023-09-23T17:12:14.008Z,2.93
2023-09-23T17:14:40.900Z,2.00
2023-09-23T17:17:07.886Z,4.10
2023-09-23T17:19:34.920Z,1.40
2023-09-23T17:22:01.750Z,3.70
2023-09-23T17:24:30.354Z,1.80
2023-09-23T17:26:57.185Z,2.43
2023-09-23T17:29:23.761Z,3.17
2023-09-23T17:31:50.302Z,3.30
2023-09-23T17:34:17.101Z,5.67
2023-09-23T17:36:43.804Z,2.10
2023-09-23T17:39:11.841Z,2.33
2023-09-23T17:41:39.161Z,2.03
2023-09-23T17:44:06.830Z,4.97
2023-09-23T17:46:34.407Z,4.30
2023-09-23T17:49:01.117Z,5.00
2023-09-23T17:51:28.160Z,3.77
2023-09-23T17:53:54.915Z,2.77
2023-09-23T17:56:23.160Z,2.20
2023-09-23T17:58:50.226Z,4.33
2023-09-23T18:01:16.899Z,5.63
2023-09-23T18:03:43.543Z,13.17
2023-09-23T18:06:10.198Z,12.53
2023-09-23T18:08:36.810Z,10.07
2023-09-23T18:11:03.480Z,6.47
2023-09-23T18:13:29.999Z,5.00
2023-09-23T18:15:56.801Z,5.83
2023-09-23T18:18:25.718Z,8.30
2023-09-23T18:20:52.333Z,6.83
2023-09-23T18:23:18.965Z,5.97
2023-09-23T18:25:45.594Z,4.47
2023-09-23T18:28:12.171Z,4.50
2023-09-23T18:30:39.326Z,4.73
2023-09-23T18:33:07.242Z,6.27
2023-09-23T18:35:34.368Z,3.27
2023-09-23T18:38:01.013Z,3.50
2023-09-23T18:40:27.534Z,9.93
2023-09-23T18:42:56.924Z,4.40
2023-09-23T18:45:23.457Z,3.07
2023-09-23T18:47:57.556Z,5.87
2023-09-23T18:50:34.388Z,3.97
2023-09-23T18:53:01.377Z,5.67
2023-09-23T18:55:28.436Z,5.03
2023-09-23T18:58:03.017Z,3.77
2023-09-23T19:00:46.388Z,3.03
2023-09-23T19:03:13.336Z,4.73
2023-09-23T19:05:40.072Z,4.20
2023-09-23T19:08:07.129Z,6.23
2023-09-23T19:10:34.062Z,6.17
2023-09-23T19:13:01.097Z,6.47
2023-09-23T19:15:27.582Z,7.27
2023-09-23T19:17:55.177Z,4.53
2023-09-23T19:20:21.794Z,6.37
2023-09-23T19:22:48.813Z,12.87
2023-09-23T19:25:15.933Z,26.37
2023-09-23T19:27:43.974Z,33.30
2023-09-23T19:30:14.277Z,22.40
2023-09-23T19:32:41.740Z,7.03
2023-09-23T19:35:09.037Z,5.83
2023-09-23T19:37:37.323Z,5.20
2023-09-23T19:40:06.235Z,4.67
2023-09-23T19:42:34.164Z,3.37
2023-09-23T19:45:03.903Z,4.37
2023-09-23T19:47:32.450Z,3.73
2023-09-23T19:50:01.517Z,4.83
2023-09-23T19:52:30.618Z,5.57
2023-09-23T19:54:57.839Z,6.30
2023-09-23T19:57:26.386Z,4.93
2023-09-23T19:59:53.571Z,6.63
2023-09-23T20:02:20.449Z,6.03
2023-09-23T20:04:47.230Z,3.20
2023-09-23T20:07:14.100Z,3.47
2023-09-23T20:09:41.544Z,5.33
2023-09-23T20:12:08.635Z,6.10
2023-09-23T20:14:37.914Z,5.67
2023-09-23T20:17:05.432Z,4.70
2023-09-23T20:19:32.058Z,9.17
2023-09-23T20:21:58.622Z,3.97
2023-09-23T20:24:25.437Z,5.37
2023-09-23T20:26:54.153Z,7.10
2023-09-23T20:29:21.727Z,8.77
2023-09-23T20:31:49.826Z,9.73
2023-09-23T20:34:17.867Z,9.90
2023-09-23T20:36:45.479Z,10.23
2023-09-23T20:39:12.280Z,9.93
2023-09-23T20:41:38.895Z,8.00
2023-09-23T20:44:05.811Z,9.27
2023-09-23T20:46:33.098Z,4.23
2023-09-23T20:49:00.646Z,4.40
2023-09-23T20:51:27.343Z,4.23
2023-09-23T20:53:55.713Z,7.20
2023-09-23T20:56:22.502Z,5.97
2023-09-23T20:58:49.084Z,2.50
2023-09-23T21:01:15.656Z,5.43
2023-09-23T21:03:42.825Z,3.13
2023-09-23T21:06:09.940Z,4.57
2023-09-23T21:08:36.624Z,3.30
2023-09-23T21:11:03.249Z,4.80
2023-09-23T21:13:29.819Z,4.67
2023-09-23T21:16:00.738Z,3.07
2023-09-23T21:18:27.371Z,4.60
2023-09-23T21:20:53.967Z,3.60
2023-09-23T21:23:21.161Z,5.33
2023-09-23T21:25:50.929Z,4.77
2023-09-23T21:28:17.549Z,4.27
2023-09-23T21:30:44.094Z,5.73
2023-09-23T21:33:11.562Z,3.27
2023-09-23T21:35:41.748Z,5.97
2023-09-23T21:38:08.822Z,4.00
2023-09-23T21:40:42.644Z,3.00
2023-09-23T21:43:09.520Z,4.83
2023-09-23T21:45:39.483Z,8.50
2023-09-23T21:48:10.253Z,4.77
2023-09-23T21:50:37.240Z,3.07
2023-09-23T21:53:05.382Z,2.87
2023-09-23T21:55:31.899Z,3.50
2023-09-23T21:57:58.643Z,5.43
2023-09-23T22:00:29.288Z,6.13
2023-09-23T22:02:59.905Z,3.10
2023-09-23T22:05:28.475Z,2.77
2023-09-23T22:07:56.544Z,3.90
2023-09-23T22:10:23.845Z,2.97
2023-09-23T22:12:50.551Z,2.17
2023-09-23T22:15:18.185Z,4.57
2023-09-23T22:17:45.146Z,3.10
2023-09-23T22:20:12.234Z,5.77
2023-09-23T22:22:41.603Z,3.43
2023-09-23T22:25:24.131Z,3.53
2023-09-23T22:27:52.764Z,5.47
2023-09-23T22:30:25.175Z,4.53
2023-09-23T22:32:59.447Z,4.50
2023-09-23T22:35:30.582Z,2.90
2023-09-23T22:38:00.132Z,3.53
2023-09-23T22:40:27.165Z,6.30
2023-09-23T22:42:56.145Z,3.53
2023-09-23T22:45:36.208Z,3.70
2023-09-23T22:48:06.372Z,2.37
2023-09-23T22:50:33.230Z,4.50
2023-09-23T22:52:59.788Z,4.57
2023-09-23T22:55:26.388Z,6.83
2023-09-23T22:57:53.713Z,3.33
2023-09-23T23:00:26.932Z,6.93
2023-09-23T23:02:54.191Z,3.50
2023-09-23T23:05:21.120Z,3.43
2023-09-23T23:07:51.368Z,3.33
2023-09-23T23:10:18.456Z,3.40
2023-09-23T23:12:47.069Z,4.13
2023-09-23T23:15:16.217Z,6.70
2023-09-23T23:17:44.890Z,7.00
2023-09-23T23:20:25.986Z,5.00
2023-09-23T23:22:56.547Z,4.43
2023-09-23T23:25:24.817Z,3.47
2023-09-23T23:27:51.682Z,4.10
2023-09-23T23:30:19.109Z,5.07
2023-09-23T23:32:50.268Z,5.07
2023-09-23T23:35:23.412Z,3.60
2023-09-23T23:37:50.750Z,3.47
2023-09-23T23:40:21.220Z,3.23
2023-09-23T23:42:48.015Z,3.50
2023-09-23T23:45:14.753Z,4.50
2023-09-23T23:47:41.388Z,3.10
2023-09-23T23:50:08.559Z,4.40
2023-09-23T23:52:35.226Z,5.83
2023-09-23T23:55:03.461Z,3.70
2023-09-23T23:57:30.005Z,4.23
2023-09-23T23:59:56.772Z,3.43
